sensor_id;sensor_type;location;lat;lon;timestamp;P1;durP1;ratioP1;P2;durP2;ratioP2
5499;SDS011;2772;42.700;23.304;2024-03-08T00:00:14;8.07;;;5.03;;
5499;SDS011;2772;42.700;23.304;2024-03-08T00:02:45;4.97;;;4.20;;
5499;SDS011;2772;42.700;23.304;2024-03-08T00:05:13;4.30;;;3.53;;
5499;SDS011;2772;42.700;23.304;2024-03-08T00:07:40;4.83;;;4.40;;
5499;SDS011;2772;42.700;23.304;2024-03-08T00:10:09;9.83;;;6.30;;
5499;SDS011;2772;42.700;23.304;2024-03-08T00:12:38;10.10;;;5.50;;
5499;SDS011;2772;42.700;23.304;2024-03-08T00:15:07;4.03;;;3.73;;
5499;SDS011;2772;42.700;23.304;2024-03-08T00:17:35;5.07;;;4.30;;
5499;SDS011;2772;42.700;23.304;2024-03-08T00:20:05;3.57;;;3.27;;
5499;SDS011;2772;42.700;23.304;2024-03-08T00:22:33;6.97;;;4.20;;
5499;SDS011;2772;42.700;23.304;2024-03-08T00:25:01;1.80;;;1.70;;
5499;SDS011;2772;42.700;23.304;2024-03-08T00:27:28;1.63;;;1.53;;
5499;SDS011;2772;42.700;23.304;2024-03-08T00:29:55;2.10;;;1.93;;
5499;SDS011;2772;42.700;23.304;2024-03-08T00:32:22;2.40;;;2.20;;
5499;SDS011;2772;42.700;23.304;2024-03-08T00:34:50;1.60;;;1.50;;
5499;SDS011;2772;42.700;23.304;2024-03-08T00:37:18;2.13;;;1.50;;
5499;SDS011;2772;42.700;23.304;2024-03-08T00:39:45;2.60;;;2.40;;
5499;SDS011;2772;42.700;23.304;2024-03-08T00:42:12;1.70;;;1.60;;
5499;SDS011;2772;42.700;23.304;2024-03-08T00:44:38;3.40;;;1.50;;
5499;SDS011;2772;42.700;23.304;2024-03-08T00:47:05;2.57;;;2.37;;
5499;SDS011;2772;42.700;23.304;2024-03-08T00:49:32;1.67;;;1.57;;
5499;SDS011;2772;42.700;23.304;2024-03-08T00:51:59;1.50;;;1.40;;
5499;SDS011;2772;42.700;23.304;2024-03-08T00:54:27;2.80;;;2.00;;
5499;SDS011;2772;42.700;23.304;2024-03-08T00:56:53;1.60;;;1.50;;
5499;SDS011;2772;42.700;23.304;2024-03-08T00:59:20;2.10;;;2.00;;
5499;SDS011;2772;42.700;23.304;2024-03-08T01:01:47;2.03;;;1.50;;
5499;SDS011;2772;42.700;23.304;2024-03-08T01:04:13;1.47;;;1.30;;
5499;SDS011;2772;42.700;23.304;2024-03-08T01:06:40;1.60;;;1.50;;
5499;SDS011;2772;42.700;23.304;2024-03-08T01:09:07;1.50;;;1.40;;
5499;SDS011;2772;42.700;23.304;2024-03-08T01:11:35;1.10;;;1.00;;
5499;SDS011;2772;42.700;23.304;2024-03-08T01:14:03;1.43;;;1.33;;
5499;SDS011;2772;42.700;23.304;2024-03-08T01:16:29;1.30;;;1.20;;
5499;SDS011;2772;42.700;23.304;2024-03-08T01:18:58;1.43;;;1.33;;
5499;SDS011;2772;42.700;23.304;2024-03-08T01:21:25;1.20;;;1.10;;
5499;SDS011;2772;42.700;23.304;2024-03-08T01:23:51;1.90;;;1.70;;
5499;SDS011;2772;42.700;23.304;2024-03-08T01:26:18;1.90;;;1.80;;
5499;SDS011;2772;42.700;23.304;2024-03-08T01:28:46;1.50;;;1.40;;
5499;SDS011;2772;42.700;23.304;2024-03-08T01:31:13;1.83;;;1.50;;
5499;SDS011;2772;42.700;23.304;2024-03-08T01:33:39;1.40;;;1.30;;
5499;SDS011;2772;42.700;23.304;2024-03-08T01:36:06;1.70;;;1.50;;
5499;SDS011;2772;42.700;23.304;2024-03-08T01:38:33;1.70;;;1.60;;
5499;SDS011;2772;42.700;23.304;2024-03-08T01:41:01;2.00;;;1.90;;
5499;SDS011;2772;42.700;23.304;2024-03-08T01:43:28;1.87;;;1.77;;
5499;SDS011;2772;42.700;23.304;2024-03-08T01:45:56;2.30;;;2.10;;
5499;SDS011;2772;42.700;23.304;2024-03-08T01:48:24;2.00;;;1.90;;
5499;SDS011;2772;42.700;23.304;2024-03-08T01:50:51;2.40;;;2.30;;
5499;SDS011;2772;42.700;23.304;2024-03-08T01:53:19;2.33;;;2.23;;
5499;SDS011;2772;42.700;23.304;2024-03-08T01:55:49;2.60;;;2.50;;
5499;SDS011;2772;42.700;23.304;2024-03-08T01:58:18;2.23;;;2.13;;
5499;SDS011;2772;42.700;23.304;2024-03-08T02:00:47;2.33;;;2.23;;
5499;SDS011;2772;42.700;23.304;2024-03-08T02:03:16;2.20;;;2.10;;
5499;SDS011;2772;42.700;23.304;2024-03-08T02:05:43;2.07;;;1.97;;
5499;SDS011;2772;42.700;23.304;2024-03-08T02:08:10;2.07;;;1.97;;
5499;SDS011;2772;42.700;23.304;2024-03-08T02:10:39;2.30;;;2.20;;
5499;SDS011;2772;42.700;23.304;2024-03-08T02:13:06;2.33;;;2.23;;
5499;SDS011;2772;42.700;23.304;2024-03-08T02:15:49;2.50;;;2.40;;
5499;SDS011;2772;42.700;23.304;2024-03-08T02:18:18;2.23;;;2.13;;
5499;SDS011;2772;42.700;23.304;2024-03-08T02:20:46;2.00;;;1.90;;
5499;SDS011;2772;42.700;23.304;2024-03-08T02:23:13;1.43;;;1.33;;
5499;SDS011;2772;42.700;23.304;2024-03-08T02:25:40;1.47;;;1.37;;
5499;SDS011;2772;42.700;23.304;2024-03-08T02:28:08;1.60;;;1.50;;
5499;SDS011;2772;42.700;23.304;2024-03-08T02:30:36;1.13;;;1.03;;
5499;SDS011;2772;42.700;23.304;2024-03-08T02:33:03;1.20;;;1.10;;
5499;SDS011;2772;42.700;23.304;2024-03-08T02:35:30;0.90;;;0.80;;
5499;SDS011;2772;42.700;23.304;2024-03-08T02:37:58;1.20;;;1.10;;
5499;SDS011;2772;42.700;23.304;2024-03-08T02:40:25;2.23;;;1.17;;
5499;SDS011;2772;42.700;23.304;2024-03-08T02:42:53;0.90;;;0.80;;
5499;SDS011;2772;42.700;23.304;2024-03-08T02:45:20;1.00;;;0.90;;
5499;SDS011;2772;42.700;23.304;2024-03-08T02:47:46;0.97;;;0.87;;
5499;SDS011;2772;42.700;23.304;2024-03-08T02:50:14;0.97;;;0.87;;
5499;SDS011;2772;42.700;23.304;2024-03-08T02:52:41;0.80;;;0.73;;
5499;SDS011;2772;42.700;23.304;2024-03-08T02:55:10;0.97;;;0.80;;
5499;SDS011;2772;42.700;23.304;2024-03-08T02:57:40;0.90;;;0.80;;
5499;SDS011;2772;42.700;23.304;2024-03-08T03:00:07;1.00;;;0.90;;
5499;SDS011;2772;42.700;23.304;2024-03-08T03:02:35;1.30;;;1.17;;
5499;SDS011;2772;42.700;23.304;2024-03-08T03:05:02;1.70;;;1.60;;
5499;SDS011;2772;42.700;23.304;2024-03-08T03:07:31;1.70;;;1.60;;
5499;SDS011;2772;42.700;23.304;2024-03-08T03:09:58;1.40;;;1.30;;
5499;SDS011;2772;42.700;23.304;2024-03-08T03:12:27;1.37;;;1.27;;
5499;SDS011;2772;42.700;23.304;2024-03-08T03:14:53;1.30;;;1.20;;
5499;SDS011;2772;42.700;23.304;2024-03-08T03:17:21;0.90;;;0.80;;
5499;SDS011;2772;42.700;23.304;2024-03-08T03:19:49;1.83;;;0.83;;
5499;SDS011;2772;42.700;23.304;2024-03-08T03:22:16;0.80;;;0.67;;
5499;SDS011;2772;42.700;23.304;2024-03-08T03:24:43;0.80;;;0.60;;
5499;SDS011;2772;42.700;23.304;2024-03-08T03:27:11;2.50;;;0.83;;
5499;SDS011;2772;42.700;23.304;2024-03-08T03:29:39;1.00;;;0.80;;
5499;SDS011;2772;42.700;23.304;2024-03-08T03:32:07;1.20;;;1.00;;
5499;SDS011;2772;42.700;23.304;2024-03-08T03:34:34;1.83;;;0.77;;
5499;SDS011;2772;42.700;23.304;2024-03-08T03:37:02;1.00;;;0.90;;
5499;SDS011;2772;42.700;23.304;2024-03-08T03:39:29;0.90;;;0.70;;
5499;SDS011;2772;42.700;23.304;2024-03-08T03:41:56;2.60;;;0.90;;
5499;SDS011;2772;42.700;23.304;2024-03-08T03:44:23;1.80;;;0.97;;
5499;SDS011;2772;42.700;23.304;2024-03-08T03:46:51;1.13;;;1.03;;
5499;SDS011;2772;42.700;23.304;2024-03-08T03:49:18;1.10;;;1.00;;
5499;SDS011;2772;42.700;23.304;2024-03-08T03:51:48;1.10;;;1.00;;
5499;SDS011;2772;42.700;23.304;2024-03-08T03:54:15;0.90;;;0.70;;
5499;SDS011;2772;42.700;23.304;2024-03-08T03:56:41;2.23;;;0.80;;
5499;SDS011;2772;42.700;23.304;2024-03-08T03:59:08;1.00;;;0.90;;
5499;SDS011;2772;42.700;23.304;2024-03-08T04:01:35;1.00;;;0.90;;
5499;SDS011;2772;42.700;23.304;2024-03-08T04:04:03;3.63;;;1.20;;
5499;SDS011;2772;42.700;23.304;2024-03-08T04:06:31;1.83;;;1.10;;
5499;SDS011;2772;42.700;23.304;2024-03-08T04:08:58;1.00;;;0.90;;
5499;SDS011;2772;42.700;23.304;2024-03-08T04:11:24;1.37;;;1.27;;
5499;SDS011;2772;42.700;23.304;2024-03-08T04:13:51;1.60;;;1.50;;
5499;SDS011;2772;42.700;23.304;2024-03-08T04:16:19;1.67;;;1.37;;
5499;SDS011;2772;42.700;23.304;2024-03-08T04:18:45;1.37;;;1.27;;
5499;SDS011;2772;42.700;23.304;2024-03-08T04:21:14;1.50;;;1.40;;
5499;SDS011;2772;42.700;23.304;2024-03-08T04:23:40;1.70;;;1.60;;
5499;SDS011;2772;42.700;23.304;2024-03-08T04:26:10;4.30;;;1.50;;
5499;SDS011;2772;42.700;23.304;2024-03-08T04:28:39;1.97;;;1.87;;
5499;SDS011;2772;42.700;23.304;2024-03-08T04:31:06;1.90;;;1.80;;
5499;SDS011;2772;42.700;23.304;2024-03-08T04:33:33;1.70;;;1.60;;
5499;SDS011;2772;42.700;23.304;2024-03-08T04:36:00;1.83;;;1.73;;
5499;SDS011;2772;42.700;23.304;2024-03-08T04:38:30;2.03;;;1.93;;
5499;SDS011;2772;42.700;23.304;2024-03-08T04:40:57;3.00;;;1.90;;
5499;SDS011;2772;42.700;23.304;2024-03-08T04:43:24;2.20;;;2.10;;
5499;SDS011;2772;42.700;23.304;2024-03-08T04:45:52;2.77;;;2.50;;
5499;SDS011;2772;42.700;23.304;2024-03-08T04:48:21;2.40;;;2.30;;
5499;SDS011;2772;42.700;23.304;2024-03-08T04:50:47;3.30;;;3.00;;
5499;SDS011;2772;42.700;23.304;2024-03-08T04:53:14;3.30;;;3.10;;
5499;SDS011;2772;42.700;23.304;2024-03-08T04:55:43;3.53;;;3.23;;
5499;SDS011;2772;42.700;23.304;2024-03-08T04:58:10;3.00;;;2.80;;
5499;SDS011;2772;42.700;23.304;2024-03-08T05:00:36;3.30;;;3.10;;
5499;SDS011;2772;42.700;23.304;2024-03-08T05:03:03;3.77;;;3.47;;
5499;SDS011;2772;42.700;23.304;2024-03-08T05:05:30;4.33;;;3.83;;
5499;SDS011;2772;42.700;23.304;2024-03-08T05:07:58;4.47;;;3.73;;
5499;SDS011;2772;42.700;23.304;2024-03-08T05:10:26;4.10;;;3.70;;
5499;SDS011;2772;42.700;23.304;2024-03-08T05:12:54;3.23;;;2.93;;
5499;SDS011;2772;42.700;23.304;2024-03-08T05:15:21;3.40;;;3.10;;
5499;SDS011;2772;42.700;23.304;2024-03-08T05:17:47;3.40;;;3.10;;
5499;SDS011;2772;42.700;23.304;2024-03-08T05:20:14;6.27;;;4.30;;
5499;SDS011;2772;42.700;23.304;2024-03-08T05:22:42;7.20;;;5.43;;
5499;SDS011;2772;42.700;23.304;2024-03-08T05:25:09;6.57;;;3.70;;
5499;SDS011;2772;42.700;23.304;2024-03-08T05:27:35;3.83;;;3.53;;
5499;SDS011;2772;42.700;23.304;2024-03-08T05:30:04;4.60;;;3.27;;
5499;SDS011;2772;42.700;23.304;2024-03-08T05:32:31;4.43;;;4.03;;
5499;SDS011;2772;42.700;23.304;2024-03-08T05:34:58;4.20;;;3.67;;
5499;SDS011;2772;42.700;23.304;2024-03-08T05:37:25;5.13;;;4.10;;
5499;SDS011;2772;42.700;23.304;2024-03-08T05:39:51;5.37;;;4.40;;
5499;SDS011;2772;42.700;23.304;2024-03-08T05:42:19;8.03;;;5.17;;
5499;SDS011;2772;42.700;23.304;2024-03-08T05:44:46;5.97;;;5.03;;
5499;SDS011;2772;42.700;23.304;2024-03-08T05:47:14;6.00;;;3.83;;
5499;SDS011;2772;42.700;23.304;2024-03-08T05:49:41;6.40;;;4.67;;
5499;SDS011;2772;42.700;23.304;2024-03-08T05:52:10;4.57;;;4.17;;
5499;SDS011;2772;42.700;23.304;2024-03-08T05:54:37;5.90;;;4.70;;
5499;SDS011;2772;42.700;23.304;2024-03-08T05:57:04;4.70;;;4.27;;
5499;SDS011;2772;42.700;23.304;2024-03-08T05:59:31;4.67;;;4.27;;
5499;SDS011;2772;42.700;23.304;2024-03-08T06:01:58;4.17;;;3.83;;
5499;SDS011;2772;42.700;23.304;2024-03-08T06:04:26;4.20;;;3.90;;
5499;SDS011;2772;42.700;23.304;2024-03-08T06:06:54;4.90;;;3.90;;
5499;SDS011;2772;42.700;23.304;2024-03-08T06:09:22;4.07;;;3.67;;
5499;SDS011;2772;42.700;23.304;2024-03-08T06:11:49;4.43;;;4.07;;
5499;SDS011;2772;42.700;23.304;2024-03-08T06:14:16;4.00;;;3.50;;
5499;SDS011;2772;42.700;23.304;2024-03-08T06:16:43;5.33;;;3.70;;
5499;SDS011;2772;42.700;23.304;2024-03-08T06:19:10;4.00;;;3.60;;
5499;SDS011;2772;42.700;23.304;2024-03-08T06:21:39;4.30;;;3.93;;
5499;SDS011;2772;42.700;23.304;2024-03-08T06:24:06;4.70;;;4.20;;
5499;SDS011;2772;42.700;23.304;2024-03-08T06:26:33;4.37;;;3.97;;
5499;SDS011;2772;42.700;23.304;2024-03-08T06:29:00;4.93;;;4.53;;
5499;SDS011;2772;42.700;23.304;2024-03-08T06:31:26;6.20;;;3.93;;
5499;SDS011;2772;42.700;23.304;2024-03-08T06:33:53;4.07;;;3.67;;
5499;SDS011;2772;42.700;23.304;2024-03-08T06:36:20;6.43;;;3.93;;
5499;SDS011;2772;42.700;23.304;2024-03-08T06:38:49;4.73;;;4.23;;
5499;SDS011;2772;42.700;23.304;2024-03-08T06:41:16;7.53;;;3.93;;
5499;SDS011;2772;42.700;23.304;2024-03-08T06:43:43;5.37;;;4.60;;
5499;SDS011;2772;42.700;23.304;2024-03-08T06:46:10;6.60;;;4.50;;
5499;SDS011;2772;42.700;23.304;2024-03-08T06:48:37;4.87;;;4.13;;
5499;SDS011;2772;42.700;23.304;2024-03-08T06:51:04;9.00;;;4.33;;
5499;SDS011;2772;42.700;23.304;2024-03-08T06:53:31;11.90;;;4.60;;
5499;SDS011;2772;42.700;23.304;2024-03-08T06:56:01;5.90;;;4.53;;
5499;SDS011;2772;42.700;23.304;2024-03-08T06:58:28;4.57;;;4.17;;
5499;SDS011;2772;42.700;23.304;2024-03-08T07:00:54;5.30;;;4.10;;
5499;SDS011;2772;42.700;23.304;2024-03-08T07:03:23;4.60;;;4.20;;
5499;SDS011;2772;42.700;23.304;2024-03-08T07:05:51;5.13;;;4.63;;
5499;SDS011;2772;42.700;23.304;2024-03-08T07:08:18;5.37;;;4.87;;
5499;SDS011;2772;42.700;23.304;2024-03-08T07:10:47;7.67;;;5.37;;
5499;SDS011;2772;42.700;23.304;2024-03-08T07:13:15;7.27;;;4.30;;
5499;SDS011;2772;42.700;23.304;2024-03-08T07:15:43;10.00;;;4.93;;
5499;SDS011;2772;42.700;23.304;2024-03-08T07:18:09;4.90;;;4.40;;
5499;SDS011;2772;42.700;23.304;2024-03-08T07:20:39;6.73;;;5.13;;
5499;SDS011;2772;42.700;23.304;2024-03-08T07:23:06;4.87;;;4.40;;
5499;SDS011;2772;42.700;23.304;2024-03-08T07:25:33;10.90;;;4.97;;
5499;SDS011;2772;42.700;23.304;2024-03-08T07:28:00;6.53;;;5.27;;
5499;SDS011;2772;42.700;23.304;2024-03-08T07:30:32;10.40;;;6.10;;
5499;SDS011;2772;42.700;23.304;2024-03-08T07:33:16;6.83;;;5.20;;
5499;SDS011;2772;42.700;23.304;2024-03-08T07:35:43;6.40;;;5.30;;
5499;SDS011;2772;42.700;23.304;2024-03-08T07:38:10;6.73;;;5.70;;
5499;SDS011;2772;42.700;23.304;2024-03-08T07:40:37;7.50;;;5.40;;
5499;SDS011;2772;42.700;23.304;2024-03-08T07:43:06;6.30;;;5.70;;
5499;SDS011;2772;42.700;23.304;2024-03-08T07:45:34;13.87;;;6.20;;
5499;SDS011;2772;42.700;23.304;2024-03-08T07:48:00;32.90;;;15.47;;
5499;SDS011;2772;42.700;23.304;2024-03-08T07:50:28;11.90;;;5.80;;
5499;SDS011;2772;42.700;23.304;2024-03-08T07:52:54;7.70;;;6.20;;
5499;SDS011;2772;42.700;23.304;2024-03-08T07:55:21;14.63;;;7.37;;
5499;SDS011;2772;42.700;23.304;2024-03-08T07:57:49;16.10;;;7.90;;
5499;SDS011;2772;42.700;23.304;2024-03-08T08:00:16;18.27;;;7.40;;
5499;SDS011;2772;42.700;23.304;2024-03-08T08:02:45;7.97;;;6.10;;
5499;SDS011;2772;42.700;23.304;2024-03-08T08:05:11;8.93;;;6.50;;
5499;SDS011;2772;42.700;23.304;2024-03-08T08:07:38;7.47;;;5.97;;
5499;SDS011;2772;42.700;23.304;2024-03-08T08:10:08;7.30;;;5.33;;
5499;SDS011;2772;42.700;23.304;2024-03-08T08:12:43;6.50;;;5.70;;
5499;SDS011;2772;42.700;23.304;2024-03-08T08:15:10;8.07;;;5.97;;
5499;SDS011;2772;42.700;23.304;2024-03-08T08:17:37;6.17;;;5.33;;
5499;SDS011;2772;42.700;23.304;2024-03-08T08:20:06;8.20;;;6.10;;
5499;SDS011;2772;42.700;23.304;2024-03-08T08:22:34;13.80;;;7.20;;
5499;SDS011;2772;42.700;23.304;2024-03-08T08:25:00;11.67;;;7.30;;
5499;SDS011;2772;42.700;23.304;2024-03-08T08:27:28;6.80;;;5.10;;
5499;SDS011;2772;42.700;23.304;2024-03-08T08:29:54;4.87;;;4.40;;
5499;SDS011;2772;42.700;23.304;2024-03-08T08:32:22;4.07;;;3.70;;
5499;SDS011;2772;42.700;23.304;2024-03-08T08:34:48;5.63;;;3.60;;
5499;SDS011;2772;42.700;23.304;2024-03-08T08:37:17;3.80;;;3.50;;
5499;SDS011;2772;42.700;23.304;2024-03-08T08:39:43;10.57;;;3.27;;
5499;SDS011;2772;42.700;23.304;2024-03-08T08:42:10;13.47;;;3.90;;
5499;SDS011;2772;42.700;23.304;2024-03-08T08:44:37;4.67;;;3.80;;
5499;SDS011;2772;42.700;23.304;2024-03-08T08:47:04;6.60;;;4.10;;
5499;SDS011;2772;42.700;23.304;2024-03-08T08:49:31;5.20;;;3.93;;
5499;SDS011;2772;42.700;23.304;2024-03-08T08:51:58;4.83;;;4.43;;
5499;SDS011;2772;42.700;23.304;2024-03-08T08:54:27;5.50;;;3.97;;
5499;SDS011;2772;42.700;23.304;2024-03-08T08:56:54;8.40;;;4.17;;
5499;SDS011;2772;42.700;23.304;2024-03-08T08:59:20;5.20;;;3.87;;
5499;SDS011;2772;42.700;23.304;2024-03-08T09:01:50;3.67;;;3.40;;
5499;SDS011;2772;42.700;23.304;2024-03-08T09:04:18;3.70;;;3.40;;
5499;SDS011;2772;42.700;23.304;2024-03-08T09:06:46;9.20;;;3.50;;
5499;SDS011;2772;42.700;23.304;2024-03-08T09:09:13;3.50;;;3.10;;
5499;SDS011;2772;42.700;23.304;2024-03-08T09:11:43;3.63;;;3.33;;
5499;SDS011;2772;42.700;23.304;2024-03-08T09:14:11;4.63;;;3.43;;
5499;SDS011;2772;42.700;23.304;2024-03-08T09:16:38;2.97;;;2.77;;
5499;SDS011;2772;42.700;23.304;2024-03-08T09:19:04;3.70;;;3.33;;
5499;SDS011;2772;42.700;23.304;2024-03-08T09:21:32;5.57;;;3.40;;
5499;SDS011;2772;42.700;23.304;2024-03-08T09:23:59;3.17;;;2.97;;
5499;SDS011;2772;42.700;23.304;2024-03-08T09:26:26;3.70;;;2.90;;
5499;SDS011;2772;42.700;23.304;2024-03-08T09:28:54;3.50;;;3.30;;
5499;SDS011;2772;42.700;23.304;2024-03-08T09:31:21;3.77;;;3.17;;
5499;SDS011;2772;42.700;23.304;2024-03-08T09:33:48;6.20;;;3.97;;
5499;SDS011;2772;42.700;23.304;2024-03-08T09:36:18;4.50;;;4.07;;
5499;SDS011;2772;42.700;23.304;2024-03-08T09:38:45;6.90;;;4.70;;
5499;SDS011;2772;42.700;23.304;2024-03-08T09:41:12;11.43;;;4.33;;
5499;SDS011;2772;42.700;23.304;2024-03-08T09:43:39;8.47;;;3.60;;
5499;SDS011;2772;42.700;23.304;2024-03-08T09:46:07;6.43;;;3.60;;
5499;SDS011;2772;42.700;23.304;2024-03-08T09:48:35;3.05;;;2.85;;
5499;SDS011;2772;42.700;23.304;2024-03-08T09:51:02;3.07;;;2.77;;
5499;SDS011;2772;42.700;23.304;2024-03-08T09:53:30;3.13;;;2.93;;
5499;SDS011;2772;42.700;23.304;2024-03-08T09:55:56;4.03;;;3.33;;
5499;SDS011;2772;42.700;23.304;2024-03-08T09:58:24;4.07;;;2.53;;
5499;SDS011;2772;42.700;23.304;2024-03-08T10:01:18;2.93;;;2.70;;
5499;SDS011;2772;42.700;23.304;2024-03-08T10:03:47;3.37;;;2.90;;
5499;SDS011;2772;42.700;23.304;2024-03-08T10:06:15;3.00;;;2.80;;
5499;SDS011;2772;42.700;23.304;2024-03-08T10:08:42;3.00;;;2.80;;
5499;SDS011;2772;42.700;23.304;2024-03-08T10:11:09;3.10;;;2.80;;
5499;SDS011;2772;42.700;23.304;2024-03-08T10:13:36;3.83;;;3.00;;
5499;SDS011;2772;42.700;23.304;2024-03-08T10:16:05;3.00;;;2.77;;
5499;SDS011;2772;42.700;23.304;2024-03-08T10:18:35;3.83;;;2.80;;
5499;SDS011;2772;42.700;23.304;2024-03-08T10:21:02;3.70;;;2.50;;
5499;SDS011;2772;42.700;23.304;2024-03-08T10:23:30;2.00;;;1.90;;
5499;SDS011;2772;42.700;23.304;2024-03-08T10:26:04;5.57;;;3.10;;
5499;SDS011;2772;42.700;23.304;2024-03-08T10:28:36;8.93;;;2.70;;
5499;SDS011;2772;42.700;23.304;2024-03-08T10:31:03;2.40;;;2.20;;
5499;SDS011;2772;42.700;23.304;2024-03-08T10:33:31;8.23;;;2.60;;
5499;SDS011;2772;42.700;23.304;2024-03-08T10:35:59;2.80;;;2.60;;
5499;SDS011;2772;42.700;23.304;2024-03-08T10:38:28;3.10;;;2.90;;
5499;SDS011;2772;42.700;23.304;2024-03-08T10:40:58;2.33;;;2.10;;
5499;SDS011;2772;42.700;23.304;2024-03-08T10:43:25;2.47;;;2.27;;
5499;SDS011;2772;42.700;23.304;2024-03-08T10:46:04;3.40;;;2.13;;
5499;SDS011;2772;42.700;23.304;2024-03-08T10:48:40;2.00;;;1.90;;
5499;SDS011;2772;42.700;23.304;2024-03-08T10:51:12;2.73;;;2.20;;
5499;SDS011;2772;42.700;23.304;2024-03-08T10:53:41;3.00;;;2.80;;
5499;SDS011;2772;42.700;23.304;2024-03-08T10:56:10;12.80;;;9.40;;
5499;SDS011;2772;42.700;23.304;2024-03-08T10:58:39;1.90;;;1.80;;
5499;SDS011;2772;42.700;23.304;2024-03-08T11:01:09;3.57;;;2.33;;
5499;SDS011;2772;42.700;23.304;2024-03-08T11:03:49;2.40;;;2.27;;
5499;SDS011;2772;42.700;23.304;2024-03-08T11:06:22;9.17;;;3.87;;
5499;SDS011;2772;42.700;23.304;2024-03-08T11:08:57;6.70;;;3.90;;
5499;SDS011;2772;42.700;23.304;2024-03-08T11:11:25;4.80;;;3.20;;
5499;SDS011;2772;42.700;23.304;2024-03-08T11:13:52;4.63;;;2.50;;
5499;SDS011;2772;42.700;23.304;2024-03-08T11:19:07;12.10;;;3.00;;
5499;SDS011;2772;42.700;23.304;2024-03-08T11:21:59;2.37;;;2.17;;
5499;SDS011;2772;42.700;23.304;2024-03-08T11:24:26;4.40;;;3.00;;
5499;SDS011;2772;42.700;23.304;2024-03-08T11:26:57;3.43;;;3.13;;
5499;SDS011;2772;42.700;23.304;2024-03-08T11:29:32;3.03;;;2.83;;
5499;SDS011;2772;42.700;23.304;2024-03-08T11:32:03;3.93;;;3.63;;
5499;SDS011;2772;42.700;23.304;2024-03-08T11:34:31;2.17;;;2.07;;
5499;SDS011;2772;42.700;23.304;2024-03-08T11:37:00;2.37;;;2.17;;
5499;SDS011;2772;42.700;23.304;2024-03-08T11:39:29;4.00;;;3.70;;
5499;SDS011;2772;42.700;23.304;2024-03-08T11:41:56;2.30;;;2.10;;
5499;SDS011;2772;42.700;23.304;2024-03-08T11:44:26;2.90;;;2.20;;
5499;SDS011;2772;42.700;23.304;2024-03-08T11:46:53;3.93;;;2.23;;
5499;SDS011;2772;42.700;23.304;2024-03-08T11:49:20;2.30;;;2.20;;
5499;SDS011;2772;42.700;23.304;2024-03-08T11:51:50;1.87;;;1.77;;
5499;SDS011;2772;42.700;23.304;2024-03-08T11:54:20;1.70;;;1.60;;
5499;SDS011;2772;42.700;23.304;2024-03-08T11:56:46;5.80;;;3.10;;
5499;SDS011;2772;42.700;23.304;2024-03-08T11:59:13;2.77;;;2.57;;
5499;SDS011;2772;42.700;23.304;2024-03-08T12:01:40;3.90;;;2.63;;
5499;SDS011;2772;42.700;23.304;2024-03-08T12:04:10;3.90;;;3.60;;
5499;SDS011;2772;42.700;23.304;2024-03-08T12:06:39;3.57;;;3.27;;
5499;SDS011;2772;42.700;23.304;2024-03-08T12:09:11;2.50;;;2.30;;
5499;SDS011;2772;42.700;23.304;2024-03-08T12:11:41;4.37;;;3.97;;
5499;SDS011;2772;42.700;23.304;2024-03-08T12:14:08;2.10;;;2.00;;
5499;SDS011;2772;42.700;23.304;2024-03-08T12:16:36;5.17;;;4.67;;
5499;SDS011;2772;42.700;23.304;2024-03-08T12:19:03;2.40;;;2.30;;
5499;SDS011;2772;42.700;23.304;2024-03-08T12:21:31;2.40;;;2.23;;
5499;SDS011;2772;42.700;23.304;2024-03-08T12:24:02;4.20;;;3.67;;
5499;SDS011;2772;42.700;23.304;2024-03-08T12:26:33;2.63;;;2.43;;
5499;SDS011;2772;42.700;23.304;2024-03-08T12:29:19;2.20;;;2.10;;
5499;SDS011;2772;42.700;23.304;2024-03-08T12:31:47;4.23;;;3.50;;
5499;SDS011;2772;42.700;23.304;2024-03-08T12:34:17;2.43;;;1.67;;
5499;SDS011;2772;42.700;23.304;2024-03-08T12:36:47;3.43;;;2.77;;
5499;SDS011;2772;42.700;23.304;2024-03-08T12:39:17;2.70;;;2.27;;
5499;SDS011;2772;42.700;23.304;2024-03-08T12:41:47;3.57;;;3.27;;
5499;SDS011;2772;42.700;23.304;2024-03-08T12:44:18;5.70;;;5.10;;
5499;SDS011;2772;42.700;23.304;2024-03-08T12:46:46;2.07;;;1.97;;
5499;SDS011;2772;42.700;23.304;2024-03-08T12:49:14;3.07;;;2.87;;
5499;SDS011;2772;42.700;23.304;2024-03-08T12:51:42;2.10;;;2.00;;
5499;SDS011;2772;42.700;23.304;2024-03-08T12:54:09;6.63;;;4.67;;
5499;SDS011;2772;42.700;23.304;2024-03-08T12:56:36;2.40;;;2.30;;
5499;SDS011;2772;42.700;23.304;2024-03-08T12:59:03;2.27;;;2.17;;
5499;SDS011;2772;42.700;23.304;2024-03-08T13:01:32;2.40;;;2.30;;
5499;SDS011;2772;42.700;23.304;2024-03-08T13:03:59;2.80;;;2.60;;
5499;SDS011;2772;42.700;23.304;2024-03-08T13:06:26;4.03;;;2.70;;
5499;SDS011;2772;42.700;23.304;2024-03-08T13:08:53;4.80;;;4.10;;
5499;SDS011;2772;42.700;23.304;2024-03-08T13:11:20;3.00;;;2.70;;
5499;SDS011;2772;42.700;23.304;2024-03-08T13:13:48;3.43;;;3.13;;
5499;SDS011;2772;42.700;23.304;2024-03-08T13:16:15;6.93;;;5.63;;
5499;SDS011;2772;42.700;23.304;2024-03-08T13:18:45;6.63;;;3.60;;
5499;SDS011;2772;42.700;23.304;2024-03-08T13:21:13;4.03;;;2.87;;
5499;SDS011;2772;42.700;23.304;2024-03-08T13:23:43;3.73;;;3.40;;
5499;SDS011;2772;42.700;23.304;2024-03-08T13:26:13;1.97;;;1.87;;
5499;SDS011;2772;42.700;23.304;2024-03-08T13:28:46;7.50;;;2.07;;
5499;SDS011;2772;42.700;23.304;2024-03-08T13:31:18;12.47;;;7.20;;
5499;SDS011;2772;42.700;23.304;2024-03-08T13:33:46;2.70;;;1.97;;
5499;SDS011;2772;42.700;23.304;2024-03-08T13:36:13;10.03;;;7.40;;
5499;SDS011;2772;42.700;23.304;2024-03-08T13:38:42;2.87;;;2.50;;
5499;SDS011;2772;42.700;23.304;2024-03-08T13:41:09;3.03;;;2.60;;
5499;SDS011;2772;42.700;23.304;2024-03-08T13:43:39;1.70;;;1.60;;
5499;SDS011;2772;42.700;23.304;2024-03-08T13:46:06;8.93;;;6.10;;
5499;SDS011;2772;42.700;23.304;2024-03-08T13:48:35;3.90;;;2.50;;
5499;SDS011;2772;42.700;23.304;2024-03-08T13:51:04;8.23;;;4.10;;
5499;SDS011;2772;42.700;23.304;2024-03-08T13:53:32;2.40;;;2.30;;
5499;SDS011;2772;42.700;23.304;2024-03-08T13:55:59;4.03;;;3.40;;
5499;SDS011;2772;42.700;23.304;2024-03-08T13:58:26;4.97;;;2.50;;
5499;SDS011;2772;42.700;23.304;2024-03-08T14:00:55;3.00;;;2.80;;
5499;SDS011;2772;42.700;23.304;2024-03-08T14:03:22;1.90;;;1.80;;
5499;SDS011;2772;42.700;23.304;2024-03-08T14:05:49;1.90;;;1.80;;
5499;SDS011;2772;42.700;23.304;2024-03-08T14:08:17;2.10;;;2.00;;
5499;SDS011;2772;42.700;23.304;2024-03-08T14:10:44;2.67;;;2.47;;
5499;SDS011;2772;42.700;23.304;2024-03-08T14:13:12;5.40;;;4.00;;
5499;SDS011;2772;42.700;23.304;2024-03-08T14:15:41;2.90;;;2.10;;
5499;SDS011;2772;42.700;23.304;2024-03-08T14:18:09;3.03;;;2.83;;
5499;SDS011;2772;42.700;23.304;2024-03-08T14:20:38;4.97;;;3.20;;
5499;SDS011;2772;42.700;23.304;2024-03-08T14:23:04;12.00;;;6.00;;
5499;SDS011;2772;42.700;23.304;2024-03-08T14:25:34;8.03;;;4.40;;
5499;SDS011;2772;42.700;23.304;2024-03-08T14:28:01;4.43;;;4.03;;
5499;SDS011;2772;42.700;23.304;2024-03-08T14:30:32;4.63;;;2.20;;
5499;SDS011;2772;42.700;23.304;2024-03-08T14:33:00;2.57;;;2.37;;
5499;SDS011;2772;42.700;23.304;2024-03-08T14:35:26;7.63;;;5.03;;
5499;SDS011;2772;42.700;23.304;2024-03-08T14:37:54;11.40;;;6.50;;
5499;SDS011;2772;42.700;23.304;2024-03-08T14:40:22;12.87;;;5.20;;
5499;SDS011;2772;42.700;23.304;2024-03-08T14:42:50;3.10;;;2.70;;
5499;SDS011;2772;42.700;23.304;2024-03-08T14:45:17;6.60;;;3.90;;
5499;SDS011;2772;42.700;23.304;2024-03-08T14:47:45;5.80;;;3.47;;
5499;SDS011;2772;42.700;23.304;2024-03-08T14:50:14;3.13;;;2.83;;
5499;SDS011;2772;42.700;23.304;2024-03-08T14:52:42;7.13;;;3.30;;
5499;SDS011;2772;42.700;23.304;2024-03-08T14:55:08;3.37;;;2.70;;
5499;SDS011;2772;42.700;23.304;2024-03-08T14:57:39;5.60;;;2.80;;
5499;SDS011;2772;42.700;23.304;2024-03-08T15:00:07;3.20;;;2.93;;
5499;SDS011;2772;42.700;23.304;2024-03-08T15:02:41;3.40;;;2.47;;
5499;SDS011;2772;42.700;23.304;2024-03-08T15:05:08;4.70;;;3.17;;
5499;SDS011;2772;42.700;23.304;2024-03-08T15:07:39;4.20;;;3.80;;